Time,TemperatureF,DewpointF,PressureIn,WindDirection,WindDirectionDegrees,WindSpeedMPH,WindSpeedGustMPH,Humidity,HourlyPrecipIn,Conditions,Clouds,dailyrainin,SoftwareType,DateUTC
2013-02-20 06:05:00,24.7,11.6,29.88,WNW,302,7.0,7.0,57,0.00,,,0.00,Wunderground v.1.15,2013-02-20 11:05:00,
2013-02-20 06:10:00,24.6,11.5,29.88,WNW,291,7.0,9.0,57,0.00,,,0.00,Wunderground v.1.15,2013-02-20 11:10:00,
2013-02-20 06:25:00,24.5,11.4,29.88,WSW,255,6.0,8.0,57,0.00,,,0.00,Wunderground v.1.15,2013-02-20 11:25:00,
2013-02-20 06:30:00,24.4,11.3,29.88,SW,214,6.0,8.0,57,0.00,,,0.00,Wunderground v.1.15,2013-02-20 11:30:00,
2013-02-20 06:40:00,24.3,10.8,29.89,WNW,288,7.0,9.0,56,0.00,,,0.00,Wunderground v.1.15,2013-02-20 11:40:00,
2013-02-20 06:51:00,24.2,10.7,29.89,NW,309,7.0,8.0,56,0.00,,,0.00,Wunderground v.1.15,2013-02-20 11:51:00,
2013-02-20 07:00:00,24.1,10.6,29.89,NNW,340,7.0,11.0,56,0.00,,,0.00,Wunderground v.1.15,2013-02-20 12:00:00,
2013-02-20 07:10:00,24.0,10.6,29.89,WSW,249,7.0,7.0,56,0.00,,,0.00,Wunderground v.1.15,2013-02-20 12:10:00,
2013-02-20 07:21:00,23.9,10.5,29.90,West,259,6.0,18.0,56,0.00,,,0.00,Wunderground v.1.15,2013-02-20 12:21:00,
2013-02-20 07:30:00,24.0,11.0,29.90,WNW,294,6.0,18.0,57,0.00,,,0.00,Wunderground v.1.15,2013-02-20 12:30:00,
2013-02-20 07:40:00,24.5,11.0,29.90,West,274,7.0,18.0,56,0.00,,,0.00,Wunderground v.1.15,2013-02-20 12:40:00,
2013-02-20 07:50:00,24.8,11.3,29.91,WSW,242,7.0,18.0,56,0.00,,,0.00,Wunderground v.1.15,2013-02-20 12:50:00,
2013-02-20 08:00:00,25.0,11.1,29.91,NNW,345,6.0,18.0,55,0.00,,,0.00,Wunderground v.1.15,2013-02-20 13:00:00,
2013-02-20 08:11:00,25.1,11.6,29.92,NW,315,9.0,9.0,56,0.00,,,0.00,Wunderground v.1.15,2013-02-20 13:11:00,
2013-02-20 08:20:00,25.5,12.0,29.91,NW,305,7.0,10.0,56,0.00,,,0.00,Wunderground v.1.15,2013-02-20 13:20:00,
2013-02-20 08:31:00,25.7,11.7,29.92,WNW,296,7.0,7.0,55,0.00,,,0.00,Wunderground v.1.15,2013-02-20 13:31:00,
2013-02-20 08:40:00,26.1,11.7,29.91,WNW,300,7.0,9.0,54,0.00,,,0.00,Wunderground v.1.15,2013-02-20 13:40:00,
2013-02-20 08:55:00,26.3,11.0,29.91,WNW,283,9.0,9.0,52,0.00,,,0.00,Wunderground v.1.15,2013-02-20 13:55:00,
2013-02-20 09:00:00,26.6,11.3,29.91,West,276,8.0,14.0,52,0.00,,,0.00,Wunderground v.1.15,2013-02-20 14:00:00,
2013-02-20 12:35:00,33.5,10.0,29.94,NW,314,9.0,23.0,37,0.00,,,0.00,Wunderground v.1.15,2013-02-20 17:35:00,
2013-02-20 12:40:00,34.0,12.7,29.94,WSW,255,8.0,23.0,41,0.00,,,0.00,Wunderground v.1.15,2013-02-20 17:40:00,
2013-02-20 12:50:00,34.3,10.7,29.93,West,280,8.0,10.0,37,0.00,,,0.00,Wunderground v.1.15,2013-02-20 17:50:00,
2013-02-20 13:00:00,34.5,9.0,29.93,WSW,250,9.0,13.0,34,0.00,,,0.00,Wunderground v.1.15,2013-02-20 18:00:00,
2013-02-20 13:11:00,35.0,9.4,29.93,WNW,284,8.0,8.0,34,0.00,,,0.00,Wunderground v.1.15,2013-02-20 18:11:00,
2013-02-20 13:20:00,35.3,9.0,29.93,West,277,8.0,20.0,33,0.00,,,0.00,Wunderground v.1.15,2013-02-20 18:20:00,
2013-02-20 13:30:00,35.7,8.7,29.92,WNW,284,9.0,20.0,32,0.00,,,0.00,Wunderground v.1.15,2013-02-20 18:30:00,
2013-02-20 13:40:00,35.9,8.2,29.93,NW,313,8.0,20.0,31,0.00,,,0.00,Wunderground v.1.15,2013-02-20 18:40:00,
2013-02-20 13:50:00,36.4,9.3,29.93,WNW,283,9.0,20.0,32,0.00,,,0.00,Wunderground v.1.15,2013-02-20 18:50:00,
2013-02-20 14:00:00,36.7,8.9,29.92,WNW,298,8.0,8.0,31,0.00,,,0.00,Wunderground v.1.15,2013-02-20 19:00:00,
2013-02-20 14:10:00,36.7,10.3,29.93,West,277,9.0,9.0,33,0.00,,,0.00,Wunderground v.1.15,2013-02-20 19:10:00,
2013-02-20 14:20:00,37.1,7.7,29.93,West,261,8.0,8.0,29,0.00,,,0.00,Wunderground v.1.15,2013-02-20 19:20:00,
2013-02-20 14:30:00,37.3,7.1,29.93,WNW,298,7.0,7.0,28,0.00,,,0.00,Wunderground v.1.15,2013-02-20 19:30:00,
2013-02-20 20:10:00,27.6,12.2,30.00,West,271,7.0,7.0,52,0.00,,,0.00,Wunderground v.1.15,2013-02-21 01:10:00,
2013-02-20 20:20:00,27.4,12.1,30.01,NW,309,6.0,6.0,52,0.00,,,0.00,Wunderground v.1.15,2013-02-21 01:20:00,
2013-02-20 20:30:00,27.4,12.1,30.01,WSW,245,8.0,9.0,52,0.00,,,0.00,Wunderground v.1.15,2013-02-21 01:30:00,
2013-02-20 20:40:00,27.3,12.4,30.01,NW,304,8.0,8.0,53,0.00,,,0.00,Wunderground v.1.15,2013-02-21 01:40:00,
2013-02-20 20:50:00,27.2,12.7,30.01,West,280,8.0,8.0,54,0.00,,,0.00,Wunderground v.1.15,2013-02-21 01:50:00,
2013-02-20 21:00:00,27.1,12.6,30.01,WSW,248,7.0,8.0,54,0.00,,,0.00,Wunderground v.1.15,2013-02-21 02:00:00,
2013-02-20 21:10:00,26.9,12.9,30.02,WNW,302,5.0,21.0,55,0.00,,,0.00,Wunderground v.1.15,2013-02-21 02:10:00,
2013-02-20 21:20:00,26.6,13.0,30.02,NW,306,4.0,4.0,56,0.00,,,0.00,Wunderground v.1.15,2013-02-21 02:20:00,
2013-02-20 21:31:00,26.5,12.9,30.02,WNW,288,3.0,21.0,56,0.00,,,0.00,Wunderground v.1.15,2013-02-21 02:31:00,
2013-02-20 21:40:00,26.4,13.2,30.02,West,280,5.0,5.0,57,0.00,,,0.00,Wunderground v.1.15,2013-02-21 02:40:00,
2013-02-20 21:50:00,26.4,12.8,30.02,WSW,246,7.0,7.0,56,0.00,,,0.00,Wunderground v.1.15,2013-02-21 02:50:00,